This is the latest recevied weather packets stored in our database for station/object W7OG-10. If no packets are shown the sender has not sent any weather packets the latest 10 day(s).
| Time | Temp. | Humidity | Pressure | Rain* | Wind** | Luminosity | Snow |
|---|---|---|---|---|---|---|---|
| 1777483145 | 26.11° C | 94% | 1024.8 hPa | 0 mm | - | - | - |
| 1777481323 | 25.56° C | 96% | 1023.7 hPa | 0 mm | - | - | - |
| 1777480123 | 25° C | 97% | 1023.4 hPa | 0 mm | - | - | - |
| 1777475323 | 23.89° C | 100% | 1027.2 hPa | 0 mm | - | - | - |
| 1777471724 | 22.78° C | 100% | 1027.5 hPa | 0 mm | - | - | - |
| 1777468724 | 22.22° C | 100% | 1027.4 hPa | 0 mm | - | - | - |
| 1777468124 | 22.22° C | 100% | 1027.4 hPa | 0 mm | - | - | - |
| 1777456725 | 22.22° C | 100% | 1026.7 hPa | 0 mm | - | - | - |
| 1777456146 | 22.22° C | 100% | 1026.6 hPa | 0 mm | - | - | - |
| 1777455525 | 22.22° C | 100% | 1026.5 hPa | 0 mm | - | - | - |
| 1777454925 | 22.22° C | 100% | 1026.6 hPa | 0 mm | - | - | - |
| 1777450726 | 22.78° C | 100% | 1026.5 hPa | 0 mm | - | - | - |
| 1777450125 | 22.78° C | 100% | 1026.4 hPa | 0 mm | - | - | - |
| 1777448326 | 22.78° C | 100% | 1026.3 hPa | 0 mm | - | - | - |
| 1777447126 | 22.78° C | 100% | 1026.1 hPa | 0 mm | - | - | - |
| 1777444727 | 22.78° C | 100% | 1026.1 hPa | 0 mm | - | - | - |
| 1777442327 | 22.78° C | 100% | 1025.9 hPa | 0 mm | - | - | - |
| 1777439926 | 22.78° C | 100% | 1025.9 hPa | 0 mm | - | - | - |
| 1777437526 | 23.33° C | 100% | 1025.5 hPa | 0 mm | - | - | - |
| 1777436947 | 23.33° C | 100% | 1025.5 hPa | 0 mm | - | - | - |
| 1777436326 | 23.33° C | 99% | 1025.4 hPa | 0 mm | - | - | - |
| 1777435126 | 23.89° C | 99% | 1025.1 hPa | 0 mm | - | - | - |
| 1777433328 | 23.89° C | 98% | 1024.6 hPa | 0 mm | - | - | - |
| 1777432726 | 23.89° C | 98% | 1024.6 hPa | 0 mm | - | - | - |
| 1777432127 | 23.89° C | 98% | 1024.5 hPa | 0 mm | - | - | - |
* Rain latest hour (hover to see other rain measurements)
** Current wind speed in m/s (hover to see current wind gust speed)